createdAt,value
2023-04-15T00:02:00.380Z,80.50
2023-04-15T00:04:31.686Z,80.50
2023-04-15T00:07:00.403Z,81.00
2023-04-15T00:09:28.533Z,81.00
2023-04-15T00:11:57.835Z,80.90
2023-04-15T00:14:26.100Z,81.10
2023-04-15T00:16:56.295Z,81.20
2023-04-15T00:19:24.269Z,81.40
2023-04-15T00:21:52.143Z,81.40
2023-04-15T00:24:20.045Z,81.40
2023-04-15T00:26:47.992Z,81.50
2023-04-15T00:29:17.304Z,82.00
2023-04-15T00:31:45.585Z,82.30
2023-04-15T00:34:14.000Z,82.30
2023-04-15T00:36:42.133Z,82.50
2023-04-15T00:39:10.089Z,83.30
2023-04-15T00:41:39.748Z,83.40
2023-04-15T00:44:07.915Z,83.30
2023-04-15T00:46:39.807Z,83.50
2023-04-15T00:49:07.949Z,83.60
2023-04-15T00:51:37.126Z,83.70
2023-04-15T00:54:05.376Z,83.60
2023-04-15T00:56:36.949Z,83.50
2023-04-15T00:59:05.486Z,83.50
2023-04-15T01:01:35.486Z,83.90
2023-04-15T01:04:05.116Z,83.80
2023-04-15T01:06:33.477Z,84.00
2023-04-15T01:09:02.052Z,83.90
2023-04-15T01:11:31.617Z,83.90
2023-04-15T01:14:00.383Z,84.00
2023-04-15T01:16:28.730Z,84.00
2023-04-15T01:18:57.532Z,84.00
2023-04-15T01:21:26.988Z,84.00
2023-04-15T01:23:56.890Z,84.20
2023-04-15T01:26:27.315Z,84.10
2023-04-15T01:28:56.285Z,84.20
2023-04-15T01:31:24.240Z,84.50
2023-04-15T01:33:52.109Z,84.70
2023-04-15T01:36:19.949Z,84.70
2023-04-15T01:38:48.384Z,84.60
2023-04-15T01:41:16.314Z,84.90
2023-04-15T01:43:45.634Z,84.80
2023-04-15T01:46:13.576Z,84.90
2023-04-15T01:48:41.883Z,84.80
2023-04-15T01:51:09.771Z,85.30
2023-04-15T01:53:37.701Z,85.00
2023-04-15T01:56:07.244Z,84.90
2023-04-15T01:58:35.153Z,85.00
2023-04-15T02:01:04.951Z,85.10
2023-04-15T02:03:32.988Z,85.20
2023-04-15T02:06:00.900Z,85.30
2023-04-15T02:08:28.797Z,85.60
2023-04-15T02:10:56.742Z,85.60
2023-04-15T02:13:24.660Z,85.60
2023-04-15T02:15:53.362Z,86.00
2023-04-15T02:18:22.699Z,86.20
2023-04-15T02:20:53.026Z,86.60
2023-04-15T02:23:20.919Z,86.80
2023-04-15T02:25:53.886Z,86.80
2023-04-15T02:28:22.499Z,86.90
2023-04-15T02:30:52.768Z,87.00
2023-04-15T02:33:22.743Z,86.70
2023-04-15T02:35:50.838Z,86.50
2023-04-15T02:38:18.791Z,87.10
2023-04-15T02:40:46.645Z,86.90
2023-04-15T02:43:14.496Z,87.10
2023-04-15T02:45:43.467Z,87.50
2023-04-15T02:48:11.487Z,87.70
2023-04-15T02:50:41.035Z,87.60
2023-04-15T02:53:09.010Z,87.50
2023-04-15T02:55:36.974Z,87.70
2023-04-15T02:58:04.895Z,87.70
2023-04-15T03:00:32.838Z,87.60
2023-04-15T03:03:03.678Z,88.00
2023-04-15T03:05:31.901Z,88.10
2023-04-15T03:08:03.075Z,87.90
2023-04-15T03:10:30.952Z,87.70
2023-04-15T03:12:58.857Z,87.80
2023-04-15T03:15:27.123Z,87.80
2023-04-15T03:17:55.091Z,87.80
2023-04-15T03:20:23.433Z,87.90
2023-04-15T03:22:51.346Z,88.10
2023-04-15T03:25:20.662Z,87.90
2023-04-15T03:27:48.595Z,87.90
2023-04-15T03:30:16.551Z,87.80
2023-04-15T03:32:44.525Z,87.80
2023-04-15T03:35:12.503Z,87.90
2023-04-15T03:37:40.581Z,87.90
2023-04-15T03:40:09.834Z,88.00
2023-04-15T03:42:39.094Z,88.20
2023-04-15T03:45:08.669Z,88.50
2023-04-15T03:47:36.586Z,88.60
2023-04-15T03:50:04.743Z,88.30
2023-04-15T03:52:32.648Z,88.20
2023-04-15T03:55:00.688Z,87.90
2023-04-15T03:57:28.690Z,88.00
2023-04-15T03:59:58.030Z,87.80
2023-04-15T04:02:26.127Z,87.80
2023-04-15T04:04:54.386Z,87.90
2023-04-15T04:07:24.589Z,87.90
2023-04-15T04:09:52.523Z,87.90
2023-04-15T04:12:20.692Z,87.80
2023-04-15T04:14:48.600Z,87.80
2023-04-15T04:17:18.027Z,87.80
2023-04-15T04:19:46.448Z,87.90
2023-04-15T04:22:14.297Z,87.90
2023-04-15T04:24:42.241Z,88.00
2023-04-15T04:27:10.215Z,88.00
2023-04-15T04:29:38.082Z,88.10
2023-04-15T04:32:06.286Z,88.00
2023-04-15T04:34:35.684Z,88.10
2023-04-15T04:37:03.547Z,88.00
2023-04-15T04:39:31.564Z,88.20
2023-04-15T04:41:59.548Z,88.60
2023-04-15T04:44:27.393Z,88.50
2023-04-15T04:46:55.546Z,88.90
2023-04-15T04:49:23.584Z,88.90
2023-04-15T04:51:53.484Z,89.00
2023-04-15T04:54:21.385Z,88.90
2023-04-15T04:56:49.328Z,89.00
2023-04-15T04:59:18.987Z,89.00
2023-04-15T05:01:47.424Z,88.90
2023-04-15T05:04:15.691Z,88.90
2023-04-15T05:06:43.763Z,88.80
2023-04-15T05:09:13.086Z,88.70
2023-04-15T05:11:41.109Z,88.60
2023-04-15T05:14:08.991Z,88.50
2023-04-15T05:16:36.953Z,88.50
2023-04-15T05:19:04.860Z,88.30
2023-04-15T05:21:32.847Z,88.50
2023-04-15T05:24:00.774Z,88.50
2023-04-15T05:26:30.079Z,88.50
2023-04-15T05:28:57.981Z,89.30
2023-04-15T05:31:26.102Z,89.60
2023-04-15T05:33:54.138Z,89.50
2023-04-15T05:36:22.174Z,89.50
2023-04-15T05:38:50.135Z,89.50
2023-04-15T05:41:19.840Z,89.60
2023-04-15T05:43:49.336Z,89.70
2023-04-15T05:46:17.477Z,89.90
2023-04-15T05:48:45.543Z,90.00
2023-04-15T05:51:13.624Z,89.80
2023-04-15T05:53:42.137Z,89.90
2023-04-15T05:56:10.058Z,89.80
2023-04-15T05:58:38.012Z,89.60
2023-04-15T06:01:07.451Z,89.80
2023-04-15T06:03:35.486Z,89.30
2023-04-15T06:06:03.654Z,89.20
2023-04-15T06:08:31.722Z,89.30
2023-04-15T06:11:00.428Z,89.20
2023-04-15T06:13:28.358Z,89.30
2023-04-15T06:15:56.292Z,89.00
2023-04-15T06:18:25.762Z,88.30
2023-04-15T06:20:53.714Z,88.50
2023-04-15T06:23:22.096Z,88.30
2023-04-15T06:25:50.126Z,88.10
2023-04-15T06:28:18.212Z,87.80
2023-04-15T06:30:46.259Z,87.30
2023-04-15T06:33:14.417Z,87.20
2023-04-15T06:35:43.928Z,87.00
2023-04-15T06:38:11.900Z,86.50
2023-04-15T06:40:40.047Z,86.10
2023-04-15T06:43:07.997Z,85.70
2023-04-15T06:45:36.015Z,85.40
2023-04-15T06:48:03.978Z,85.00
2023-04-15T06:50:32.532Z,84.70
2023-04-15T06:53:02.085Z,84.50
2023-04-15T06:55:29.947Z,84.30
2023-04-15T06:57:57.864Z,84.40
2023-04-15T07:00:26.149Z,84.00
2023-04-15T07:02:55.184Z,84.00
2023-04-15T07:05:23.089Z,84.40
2023-04-15T07:07:51.299Z,84.00
2023-04-15T07:10:20.803Z,83.50
2023-04-15T07:12:50.610Z,83.30
2023-04-15T07:15:18.491Z,83.50
2023-04-15T07:17:46.421Z,83.20
2023-04-15T07:20:14.673Z,83.00
2023-04-15T07:22:42.537Z,82.40
2023-04-15T07:25:11.059Z,82.30
2023-04-15T07:27:40.688Z,82.20
2023-04-15T07:30:09.759Z,81.60
2023-04-15T07:32:37.852Z,81.70
2023-04-15T07:35:06.363Z,81.40
2023-04-15T07:37:34.317Z,81.30
2023-04-15T07:40:02.337Z,80.50
2023-04-15T07:42:30.474Z,81.50
2023-04-15T07:44:59.838Z,81.30
2023-04-15T07:47:28.121Z,81.30
2023-04-15T07:49:56.045Z,81.10
2023-04-15T07:52:23.939Z,80.60
2023-04-15T07:54:51.918Z,80.60
2023-04-15T07:57:19.939Z,80.50
2023-04-15T07:59:47.945Z,80.40
2023-04-15T08:02:17.403Z,79.90
2023-04-15T08:04:45.449Z,79.80
2023-04-15T08:07:13.553Z,79.90
2023-04-15T08:09:41.926Z,79.40
2023-04-15T08:12:12.448Z,79.50
2023-04-15T08:14:40.593Z,78.90
2023-04-15T08:17:08.449Z,79.00
2023-04-15T08:19:37.680Z,78.30
2023-04-15T08:22:05.628Z,77.80
2023-04-15T08:24:38.543Z,76.60
2023-04-15T08:27:07.981Z,77.40
2023-04-15T08:29:36.165Z,77.50
2023-04-15T08:32:04.332Z,76.90
2023-04-15T08:34:32.335Z,78.00
2023-04-15T08:37:01.646Z,77.70
2023-04-15T08:39:29.604Z,77.70
2023-04-15T08:42:02.542Z,77.30
2023-04-15T08:44:31.715Z,77.70
2023-04-15T08:47:02.889Z,77.70
2023-04-15T08:49:31.503Z,77.60
2023-04-15T08:52:01.863Z,77.30
2023-04-15T08:54:30.236Z,76.50
2023-04-15T08:56:59.582Z,75.30
2023-04-15T08:59:27.674Z,75.70
2023-04-15T09:01:56.657Z,74.20
2023-04-15T09:04:24.566Z,75.00
2023-04-15T09:06:53.165Z,73.80
2023-04-15T09:09:22.675Z,73.10
2023-04-15T09:11:51.484Z,73.00
2023-04-15T09:14:19.427Z,72.20
2023-04-15T09:17:01.904Z,71.60
2023-04-15T09:19:30.513Z,73.80
2023-04-15T09:22:00.080Z,74.00
2023-04-15T09:24:37.426Z,74.70
2023-04-15T09:27:06.075Z,73.50
2023-04-15T09:29:34.149Z,75.20
2023-04-15T09:32:12.295Z,75.00
2023-04-15T09:34:40.581Z,74.70
2023-04-15T09:37:10.880Z,75.00
2023-04-15T09:39:51.089Z,74.40
2023-04-15T09:42:24.501Z,74.60
2023-04-15T09:44:53.183Z,74.30
2023-04-15T09:47:32.168Z,74.20
2023-04-15T09:50:01.805Z,72.30
2023-04-15T09:52:30.425Z,73.80
2023-04-15T09:55:01.513Z,73.70
2023-04-15T09:57:36.231Z,71.90
2023-04-15T10:00:05.339Z,72.20
2023-04-15T10:02:33.572Z,72.50
2023-04-15T10:05:02.439Z,72.20
2023-04-15T10:07:30.929Z,72.20
2023-04-15T10:10:02.280Z,72.30
2023-04-15T10:12:33.397Z,72.00
2023-04-15T10:15:04.858Z,74.20
2023-04-15T10:17:35.609Z,73.40
2023-04-15T10:20:05.885Z,73.90
2023-04-15T10:22:34.340Z,74.00
2023-04-15T10:25:04.624Z,73.40
2023-04-15T10:27:33.761Z,73.00
2023-04-15T10:30:03.664Z,73.50
2023-04-15T10:32:32.484Z,73.40
2023-04-15T10:35:01.280Z,73.30
2023-04-15T10:37:35.980Z,73.20
2023-04-15T10:40:25.561Z,72.50
2023-04-15T10:42:53.570Z,73.30
2023-04-15T10:45:21.460Z,72.80
2023-04-15T10:47:55.032Z,73.00
2023-04-15T10:50:23.242Z,73.50
2023-04-15T10:52:52.678Z,73.40
2023-04-15T10:55:23.592Z,73.10
2023-04-15T10:57:55.050Z,74.20
2023-04-15T11:00:27.108Z,75.10
2023-04-15T11:02:57.096Z,75.40
2023-04-15T11:05:54.543Z,74.80
2023-04-15T11:08:55.865Z,75.00
2023-04-15T11:11:25.200Z,74.40
2023-04-15T11:13:54.188Z,73.40
2023-04-15T11:16:22.907Z,73.20
2023-04-15T11:18:56.090Z,73.70
2023-04-15T11:21:28.058Z,73.20
2023-04-15T11:23:55.982Z,74.10
2023-04-15T11:26:27.690Z,72.30
2023-04-15T11:28:55.944Z,74.20
2023-04-15T11:31:23.962Z,76.30
2023-04-15T11:33:56.621Z,76.70
2023-04-15T11:36:27.183Z,76.40
2023-04-15T11:38:55.468Z,76.30
2023-04-15T11:41:25.038Z,76.20
2023-04-15T11:43:53.450Z,73.30
2023-04-15T11:46:22.431Z,72.40
2023-04-15T11:48:50.539Z,73.20
2023-04-15T11:51:20.770Z,73.40
2023-04-15T11:53:50.442Z,73.40
2023-04-15T11:56:20.151Z,73.60
2023-04-15T11:58:52.719Z,73.80
2023-04-15T12:01:20.784Z,74.80
2023-04-15T12:03:50.279Z,73.80
2023-04-15T12:06:20.030Z,73.30
2023-04-15T12:09:02.673Z,71.40
2023-04-15T12:11:36.412Z,72.90
2023-04-15T12:14:08.395Z,73.30
2023-04-15T12:16:49.052Z,73.60
2023-04-15T12:19:23.443Z,74.70
2023-04-15T12:21:51.712Z,74.50
2023-04-15T12:24:22.722Z,76.70
2023-04-15T12:26:52.495Z,76.30
2023-04-15T12:29:26.603Z,75.70
2023-04-15T12:31:56.005Z,76.70
2023-04-15T12:34:32.042Z,76.50
2023-04-15T12:37:01.070Z,76.70
2023-04-15T12:39:31.139Z,77.20
2023-04-15T12:42:00.083Z,78.00
2023-04-15T12:44:30.013Z,78.70
2023-04-15T12:46:58.086Z,78.40
2023-04-15T12:49:26.703Z,78.00
2023-04-15T12:51:56.409Z,78.70
2023-04-15T12:54:24.292Z,78.40
2023-04-15T12:56:52.743Z,78.20
2023-04-15T12:59:21.047Z,78.00
2023-04-15T13:01:50.815Z,79.20
2023-04-15T13:04:18.971Z,79.90
2023-04-15T13:06:46.904Z,78.70
2023-04-15T13:09:14.932Z,79.70
2023-04-15T13:11:42.894Z,80.00
2023-04-15T13:14:11.542Z,79.80
2023-04-15T13:16:39.899Z,80.30
2023-04-15T13:19:09.304Z,79.50
2023-04-15T13:21:37.201Z,80.40
2023-04-15T13:24:07.090Z,80.80
2023-04-15T13:26:35.275Z,80.80
2023-04-15T13:29:03.133Z,80.70
2023-04-15T13:31:31.067Z,81.60
2023-04-15T13:33:59.132Z,81.60
2023-04-15T13:36:28.364Z,81.40
2023-04-15T13:38:56.935Z,82.30
2023-04-15T13:41:24.796Z,81.70
2023-04-15T13:43:52.673Z,82.90
2023-04-15T13:46:20.525Z,82.90
2023-04-15T13:48:48.832Z,83.20
2023-04-15T13:51:16.702Z,83.40
2023-04-15T13:53:45.927Z,83.30
2023-04-15T13:56:13.974Z,84.10
2023-04-15T13:58:42.374Z,84.10
2023-04-15T14:01:10.333Z,84.40
2023-04-15T14:03:38.748Z,85.00
2023-04-15T14:06:07.032Z,85.00
2023-04-15T14:08:35.015Z,84.70
2023-04-15T14:11:04.291Z,85.10
2023-04-15T14:13:32.187Z,83.70
2023-04-15T14:16:00.095Z,84.50
2023-04-15T14:18:27.991Z,84.60
2023-04-15T14:20:55.900Z,83.30
2023-04-15T14:23:23.904Z,84.10
2023-04-15T14:25:51.850Z,83.60
2023-04-15T14:28:21.105Z,83.90
2023-04-15T14:30:48.943Z,84.00
2023-04-15T14:33:17.015Z,83.50
2023-04-15T14:35:44.842Z,84.30
2023-04-15T14:38:12.738Z,84.30
2023-04-15T14:40:41.755Z,84.90
2023-04-15T14:43:09.740Z,84.70
2023-04-15T14:45:42.057Z,84.60
2023-04-15T14:48:12.659Z,85.40
2023-04-15T14:50:41.287Z,85.60
2023-04-15T14:53:09.144Z,85.10
2023-04-15T14:55:37.010Z,85.10
2023-04-15T14:58:04.888Z,84.70
2023-04-15T15:00:32.844Z,85.90
2023-04-15T15:03:02.308Z,85.80
2023-04-15T15:05:30.303Z,85.70
2023-04-15T15:07:58.145Z,85.50
2023-04-15T15:10:39.424Z,85.90
2023-04-15T15:13:14.067Z,85.70
2023-04-15T15:15:42.120Z,85.60
2023-04-15T15:18:11.683Z,85.60
2023-04-15T15:20:39.611Z,85.80
2023-04-15T15:23:07.493Z,86.00
2023-04-15T15:25:35.405Z,85.90
2023-04-15T15:28:03.345Z,85.70
2023-04-15T15:30:31.468Z,85.30
2023-04-15T15:32:59.455Z,85.70
2023-04-15T15:35:28.778Z,85.70
2023-04-15T15:37:56.641Z,85.40
2023-04-15T15:40:24.885Z,85.60
2023-04-15T15:42:53.207Z,85.70
2023-04-15T15:45:21.157Z,85.90
2023-04-15T15:47:49.225Z,85.90
2023-04-15T15:50:17.173Z,85.70
2023-04-15T15:52:46.431Z,85.80
2023-04-15T15:55:14.305Z,85.80
2023-04-15T15:57:42.155Z,86.00
2023-04-15T16:00:12.806Z,86.20
2023-04-15T16:05:12.273Z,86.10
2023-04-15T16:07:40.206Z,86.00
2023-04-15T16:10:11.035Z,86.00
2023-04-15T16:12:38.991Z,85.90
2023-04-15T16:15:08.075Z,85.70
2023-04-15T16:17:36.054Z,86.10
2023-04-15T16:20:05.831Z,86.00
2023-04-15T16:22:34.181Z,86.30
2023-04-15T16:25:02.489Z,86.20
2023-04-15T16:27:32.200Z,86.10
2023-04-15T16:30:00.307Z,86.40
2023-04-15T16:32:28.201Z,86.40
2023-04-15T16:34:56.691Z,86.70
2023-04-15T16:37:24.561Z,86.80
2023-04-15T16:39:52.485Z,86.70
2023-04-15T16:42:20.419Z,86.70
2023-04-15T16:44:49.693Z,87.00
2023-04-15T16:47:17.616Z,87.00
2023-04-15T16:49:45.438Z,86.90
2023-04-15T16:52:13.277Z,86.90
2023-04-15T16:54:41.596Z,87.20
2023-04-15T16:57:09.669Z,87.60
2023-04-15T16:59:37.532Z,87.90
2023-04-15T17:02:06.820Z,88.30
2023-04-15T17:04:34.980Z,88.10
2023-04-15T17:07:03.147Z,88.50
2023-04-15T17:09:31.077Z,88.50
2023-04-15T17:11:59.076Z,88.80
2023-04-15T17:14:28.244Z,89.00
2023-04-15T17:16:56.084Z,89.00
2023-04-15T17:19:26.680Z,89.20
2023-04-15T17:21:55.148Z,89.20
2023-04-15T17:24:23.223Z,89.60
2023-04-15T17:26:51.078Z,89.70
2023-04-15T17:29:18.921Z,89.90
2023-04-15T17:31:46.829Z,89.90
2023-04-15T17:34:15.999Z,90.00
2023-04-15T17:36:45.447Z,90.10
2023-04-15T17:39:14.923Z,89.90
2023-04-15T17:41:42.760Z,90.00
2023-04-15T17:44:10.657Z,90.20
2023-04-15T17:46:38.666Z,90.00
2023-04-15T17:49:06.920Z,90.20
2023-04-15T17:51:34.970Z,90.10
2023-04-15T17:54:04.522Z,90.60
2023-04-15T17:56:32.709Z,90.50
2023-04-15T17:59:02.326Z,90.50
2023-04-15T18:01:30.547Z,90.50
2023-04-15T18:03:58.528Z,90.60
2023-04-15T18:06:27.358Z,90.60
2023-04-15T18:08:56.029Z,90.80
2023-04-15T18:11:25.366Z,90.80
2023-04-15T18:13:53.200Z,90.70
2023-04-15T18:16:21.160Z,90.60
2023-04-15T18:18:49.080Z,90.70
2023-04-15T18:21:16.910Z,90.60
2023-04-15T18:23:44.817Z,90.80
2023-04-15T18:26:12.886Z,90.80
2023-04-15T18:28:42.125Z,90.80
2023-04-15T18:31:10.062Z,90.80
2023-04-15T18:33:37.960Z,91.00
2023-04-15T18:36:05.982Z,91.10
2023-04-15T18:38:33.924Z,91.10
2023-04-15T18:41:01.761Z,91.20
2023-04-15T18:43:29.622Z,91.20
2023-04-15T18:45:59.004Z,91.10
2023-04-15T18:48:27.284Z,90.90
2023-04-15T18:50:55.240Z,91.10
2023-04-15T18:53:23.081Z,91.30
2023-04-15T18:55:50.909Z,91.40
2023-04-15T18:58:18.800Z,91.20
2023-04-15T19:00:46.692Z,91.30
2023-04-15T19:03:15.921Z,91.40
2023-04-15T19:05:44.356Z,91.50
2023-04-15T19:08:12.293Z,91.40
2023-04-15T19:10:40.305Z,91.50
2023-04-15T19:13:08.174Z,91.50
2023-04-15T19:15:36.013Z,91.60
2023-04-15T19:18:05.243Z,91.50
2023-04-15T19:20:37.851Z,91.60
2023-04-15T19:23:07.361Z,91.70
2023-04-15T19:25:35.288Z,91.60
2023-04-15T19:28:03.192Z,91.40
2023-04-15T19:30:32.320Z,91.60
2023-04-15T19:33:00.309Z,91.50
2023-04-15T19:35:28.320Z,91.60
2023-04-15T19:37:57.582Z,91.50
2023-04-15T19:40:25.434Z,91.60
2023-04-15T19:42:53.324Z,91.60
2023-04-15T19:45:21.162Z,91.40
2023-04-15T19:47:49.209Z,91.70
2023-04-15T19:50:17.705Z,91.60
2023-04-15T19:52:45.579Z,91.70
2023-04-15T19:55:14.819Z,91.70
2023-04-15T19:57:42.687Z,91.60
2023-04-15T20:00:11.592Z,91.50
2023-04-15T20:02:39.653Z,91.70
2023-04-15T20:05:09.772Z,91.50
2023-04-15T20:07:39.548Z,91.60
2023-04-15T20:10:08.564Z,91.50
2023-04-15T20:12:51.327Z,91.60
2023-04-15T20:15:23.697Z,91.60
2023-04-15T20:17:51.881Z,91.70
2023-04-15T20:20:19.774Z,91.50
2023-04-15T20:22:47.944Z,91.60
2023-04-15T20:25:15.846Z,91.50
2023-04-15T20:27:45.668Z,91.50
2023-04-15T20:30:13.575Z,91.70
2023-04-15T20:32:41.555Z,91.60
2023-04-15T20:35:09.710Z,91.60
2023-04-15T20:37:40.260Z,91.60
2023-04-15T20:40:09.277Z,91.40
2023-04-15T20:42:37.156Z,91.60
2023-04-15T20:45:07.993Z,91.60
2023-04-15T20:47:35.874Z,91.60
2023-04-15T20:50:03.928Z,91.90
2023-04-15T20:52:31.793Z,91.70
2023-04-15T20:54:59.664Z,91.60
2023-04-15T20:57:29.994Z,91.80
2023-04-15T20:59:57.891Z,91.80
2023-04-15T21:02:27.309Z,91.90
2023-04-15T21:04:55.284Z,91.70
2023-04-15T21:07:23.136Z,91.90
2023-04-15T21:09:51.014Z,91.80
2023-04-15T21:12:18.998Z,91.70
2023-04-15T21:14:46.865Z,91.80
2023-04-15T21:17:14.713Z,91.60
2023-04-15T21:19:44.311Z,91.60
2023-04-15T21:22:12.145Z,91.70
2023-04-15T21:24:40.058Z,91.60
2023-04-15T21:27:07.957Z,91.70
2023-04-15T21:29:35.895Z,91.70
2023-04-15T21:32:03.824Z,91.70
2023-04-15T21:34:31.783Z,91.70
2023-04-15T21:37:01.038Z,91.70
2023-04-15T21:39:28.902Z,91.60
2023-04-15T21:41:57.878Z,91.70
2023-04-15T21:44:25.895Z,91.50
2023-04-15T21:46:53.828Z,91.40
2023-04-15T21:49:23.192Z,91.60
2023-04-15T21:51:52.133Z,91.70
2023-04-15T21:54:21.386Z,91.70
2023-04-15T21:56:49.644Z,91.80
2023-04-15T21:59:17.485Z,91.70
2023-04-15T22:01:45.538Z,91.80
2023-04-15T22:04:13.635Z,91.50
2023-04-15T22:06:41.606Z,91.70
2023-04-15T22:09:12.020Z,91.40
2023-04-15T22:11:42.014Z,91.60
2023-04-15T22:14:10.494Z,91.60
2023-04-15T22:16:38.441Z,91.70
2023-04-15T22:19:06.617Z,91.60
2023-04-15T22:21:34.582Z,91.60
2023-04-15T22:24:38.869Z,91.80
2023-04-15T22:26:51.813Z,91.60
2023-04-15T22:29:19.730Z,91.60
2023-04-15T22:31:47.666Z,91.50
2023-04-15T22:34:21.068Z,91.60
2023-04-15T22:36:48.962Z,91.50
2023-04-15T22:39:17.165Z,91.60
2023-04-15T22:41:45.043Z,91.50
2023-04-15T22:44:14.271Z,91.40
2023-04-15T22:46:42.397Z,91.50
2023-04-15T22:49:11.375Z,91.50
2023-04-15T22:51:39.252Z,91.60
2023-04-15T22:54:07.109Z,91.70
2023-04-15T22:56:35.004Z,91.70
2023-04-15T22:59:02.872Z,91.70
2023-04-15T23:01:32.325Z,91.70
2023-04-15T23:04:08.156Z,91.80
2023-04-15T23:06:37.339Z,91.70
2023-04-15T23:09:05.497Z,91.60
2023-04-15T23:11:33.371Z,91.60
2023-04-15T23:14:01.288Z,91.60
2023-04-15T23:16:29.218Z,91.90
2023-04-15T23:18:58.442Z,91.80
2023-04-15T23:21:27.278Z,91.80
2023-04-15T23:23:55.306Z,91.90
2023-04-15T23:26:23.191Z,91.70
2023-04-15T23:28:51.167Z,91.90
2023-04-15T23:31:19.164Z,91.80
2023-04-15T23:33:47.113Z,92.00
2023-04-15T23:36:16.380Z,91.70
2023-04-15T23:38:44.322Z,91.70
2023-04-15T23:41:12.274Z,91.70
2023-04-15T23:43:40.240Z,91.70
2023-04-15T23:46:08.503Z,91.60
2023-04-15T23:48:36.366Z,91.60
2023-04-15T23:51:04.544Z,91.60
2023-04-15T23:53:33.908Z,91.50
2023-04-15T23:56:01.904Z,91.70
2023-04-15T23:58:29.761Z,91.50
